sensor_id;sensor_type;location;lat;lon;timestamp;P1;durP1;ratioP1;P2;durP2;ratioP2
64598;SDS011;51008;51.504;11.548;2023-12-22T00:01:21;21.75;;;3.60;;
64598;SDS011;51008;51.504;11.548;2023-12-22T00:06:22;30.17;;;3.80;;
64598;SDS011;51008;51.504;11.548;2023-12-22T00:11:23;24.90;;;3.38;;
64598;SDS011;51008;51.504;11.548;2023-12-22T00:16:24;30.02;;;4.13;;
64598;SDS011;51008;51.504;11.548;2023-12-22T00:21:26;27.92;;;4.75;;
64598;SDS011;51008;51.504;11.548;2023-12-22T00:26:27;34.50;;;3.88;;
64598;SDS011;51008;51.504;11.548;2023-12-22T00:31:28;27.95;;;4.65;;
64598;SDS011;51008;51.504;11.548;2023-12-22T00:36:29;22.52;;;3.25;;
64598;SDS011;51008;51.504;11.548;2023-12-22T00:41:30;31.13;;;3.83;;
64598;SDS011;51008;51.504;11.548;2023-12-22T00:46:32;34.58;;;4.72;;
64598;SDS011;51008;51.504;11.548;2023-12-22T00:51:33;29.27;;;3.83;;
64598;SDS011;51008;51.504;11.548;2023-12-22T00:56:34;29.27;;;4.20;;
64598;SDS011;51008;51.504;11.548;2023-12-22T01:01:35;28.55;;;4.60;;
64598;SDS011;51008;51.504;11.548;2023-12-22T01:06:37;26.23;;;3.83;;
64598;SDS011;51008;51.504;11.548;2023-12-22T01:11:39;33.17;;;4.15;;
64598;SDS011;51008;51.504;11.548;2023-12-22T01:16:40;32.05;;;4.20;;
64598;SDS011;51008;51.504;11.548;2023-12-22T01:21:41;25.30;;;4.15;;
64598;SDS011;51008;51.504;11.548;2023-12-22T01:26:42;37.40;;;3.83;;
64598;SDS011;51008;51.504;11.548;2023-12-22T01:31:43;24.73;;;3.55;;
64598;SDS011;51008;51.504;11.548;2023-12-22T01:36:45;26.55;;;3.65;;
64598;SDS011;51008;51.504;11.548;2023-12-22T01:42:05;26.30;;;4.03;;
64598;SDS011;51008;51.504;11.548;2023-12-22T01:47:12;20.92;;;4.03;;
64598;SDS011;51008;51.504;11.548;2023-12-22T01:52:15;17.00;;;2.95;;
64598;SDS011;51008;51.504;11.548;2023-12-22T01:57:17;22.65;;;3.95;;
64598;SDS011;51008;51.504;11.548;2023-12-22T02:02:20;24.80;;;3.45;;
64598;SDS011;51008;51.504;11.548;2023-12-22T02:07:20;17.30;;;3.15;;
64598;SDS011;51008;51.504;11.548;2023-12-22T02:12:22;30.35;;;3.92;;
64598;SDS011;51008;51.504;11.548;2023-12-22T02:17:26;22.90;;;3.78;;
64598;SDS011;51008;51.504;11.548;2023-12-22T02:22:33;26.48;;;3.60;;
64598;SDS011;51008;51.504;11.548;2023-12-22T02:27:39;16.95;;;2.78;;
64598;SDS011;51008;51.504;11.548;2023-12-22T02:32:46;19.92;;;2.50;;
64598;SDS011;51008;51.504;11.548;2023-12-22T02:37:54;26.10;;;3.05;;
64598;SDS011;51008;51.504;11.548;2023-12-22T02:42:58;18.08;;;2.65;;
64598;SDS011;51008;51.504;11.548;2023-12-22T02:48:01;18.85;;;2.53;;
64598;SDS011;51008;51.504;11.548;2023-12-22T02:53:02;17.92;;;3.08;;
64598;SDS011;51008;51.504;11.548;2023-12-22T02:58:03;18.35;;;2.55;;
64598;SDS011;51008;51.504;11.548;2023-12-22T03:03:04;12.20;;;2.33;;
64598;SDS011;51008;51.504;11.548;2023-12-22T03:08:05;12.95;;;1.73;;
64598;SDS011;51008;51.504;11.548;2023-12-22T03:13:06;12.77;;;2.20;;
64598;SDS011;51008;51.504;11.548;2023-12-22T03:18:07;14.10;;;1.92;;
64598;SDS011;51008;51.504;11.548;2023-12-22T03:23:09;14.63;;;1.95;;
64598;SDS011;51008;51.504;11.548;2023-12-22T03:28:10;14.23;;;1.90;;
64598;SDS011;51008;51.504;11.548;2023-12-22T03:33:11;8.25;;;1.83;;
64598;SDS011;51008;51.504;11.548;2023-12-22T03:38:12;10.55;;;1.52;;
64598;SDS011;51008;51.504;11.548;2023-12-22T03:43:13;8.18;;;1.23;;
64598;SDS011;51008;51.504;11.548;2023-12-22T03:48:15;10.90;;;1.77;;
64598;SDS011;51008;51.504;11.548;2023-12-22T03:53:16;9.50;;;1.52;;
64598;SDS011;51008;51.504;11.548;2023-12-22T03:58:17;9.70;;;1.38;;
64598;SDS011;51008;51.504;11.548;2023-12-22T04:03:18;11.77;;;1.42;;
64598;SDS011;51008;51.504;11.548;2023-12-22T04:08:19;8.05;;;1.40;;
64598;SDS011;51008;51.504;11.548;2023-12-22T04:13:20;9.52;;;1.80;;
64598;SDS011;51008;51.504;11.548;2023-12-22T04:18:22;10.38;;;1.70;;
64598;SDS011;51008;51.504;11.548;2023-12-22T04:23:23;14.85;;;2.15;;
64598;SDS011;51008;51.504;11.548;2023-12-22T04:28:24;8.35;;;1.40;;
64598;SDS011;51008;51.504;11.548;2023-12-22T04:33:24;14.15;;;2.35;;
64598;SDS011;51008;51.504;11.548;2023-12-22T04:38:25;12.45;;;1.80;;
64598;SDS011;51008;51.504;11.548;2023-12-22T04:43:26;12.35;;;2.20;;
64598;SDS011;51008;51.504;11.548;2023-12-22T04:48:27;16.60;;;2.20;;
64598;SDS011;51008;51.504;11.548;2023-12-22T04:53:28;4.50;;;1.23;;
64598;SDS011;51008;51.504;11.548;2023-12-22T04:58:29;8.95;;;1.85;;
64598;SDS011;51008;51.504;11.548;2023-12-22T05:03:31;11.23;;;1.65;;
64598;SDS011;51008;51.504;11.548;2023-12-22T05:08:32;11.98;;;1.50;;
64598;SDS011;51008;51.504;11.548;2023-12-22T05:13:33;11.73;;;1.90;;
64598;SDS011;51008;51.504;11.548;2023-12-22T05:18:34;14.80;;;1.77;;
64598;SDS011;51008;51.504;11.548;2023-12-22T05:23:35;12.57;;;2.20;;
64598;SDS011;51008;51.504;11.548;2023-12-22T05:28:36;14.27;;;1.73;;
64598;SDS011;51008;51.504;11.548;2023-12-22T05:33:38;16.45;;;2.05;;
64598;SDS011;51008;51.504;11.548;2023-12-22T05:38:39;14.48;;;2.10;;
64598;SDS011;51008;51.504;11.548;2023-12-22T05:43:40;16.38;;;2.45;;
64598;SDS011;51008;51.504;11.548;2023-12-22T05:48:41;10.07;;;2.08;;
64598;SDS011;51008;51.504;11.548;2023-12-22T05:53:42;5.35;;;1.48;;
64598;SDS011;51008;51.504;11.548;2023-12-22T05:58:44;12.75;;;1.73;;
64598;SDS011;51008;51.504;11.548;2023-12-22T06:03:45;16.48;;;2.05;;
64598;SDS011;51008;51.504;11.548;2023-12-22T06:08:47;17.88;;;2.65;;
64598;SDS011;51008;51.504;11.548;2023-12-22T06:13:48;10.15;;;2.05;;
64598;SDS011;51008;51.504;11.548;2023-12-22T06:18:49;18.42;;;2.20;;
64598;SDS011;51008;51.504;11.548;2023-12-22T06:23:50;11.27;;;1.48;;
64598;SDS011;51008;51.504;11.548;2023-12-22T06:28:51;9.05;;;1.73;;
64598;SDS011;51008;51.504;11.548;2023-12-22T06:33:52;8.07;;;1.50;;
64598;SDS011;51008;51.504;11.548;2023-12-22T06:38:57;15.55;;;1.98;;
64598;SDS011;51008;51.504;11.548;2023-12-22T06:43:58;14.02;;;2.00;;
64598;SDS011;51008;51.504;11.548;2023-12-22T06:48:59;15.65;;;2.35;;
64598;SDS011;51008;51.504;11.548;2023-12-22T06:54:01;12.55;;;1.80;;
64598;SDS011;51008;51.504;11.548;2023-12-22T06:59:03;7.93;;;1.52;;
64598;SDS011;51008;51.504;11.548;2023-12-22T07:04:04;8.75;;;1.40;;
64598;SDS011;51008;51.504;11.548;2023-12-22T07:14:12;11.25;;;1.80;;
64598;SDS011;51008;51.504;11.548;2023-12-22T07:19:13;10.07;;;1.70;;
64598;SDS011;51008;51.504;11.548;2023-12-22T07:24:14;14.80;;;2.03;;
64598;SDS011;51008;51.504;11.548;2023-12-22T07:29:15;12.85;;;2.17;;
64598;SDS011;51008;51.504;11.548;2023-12-22T07:34:16;10.27;;;1.70;;
64598;SDS011;51008;51.504;11.548;2023-12-22T07:39:17;7.93;;;1.30;;
64598;SDS011;51008;51.504;11.548;2023-12-22T07:44:18;10.60;;;1.60;;
64598;SDS011;51008;51.504;11.548;2023-12-22T07:49:19;8.40;;;1.38;;
64598;SDS011;51008;51.504;11.548;2023-12-22T07:54:20;3.95;;;0.70;;
64598;SDS011;51008;51.504;11.548;2023-12-22T07:59:21;10.02;;;1.00;;
64598;SDS011;51008;51.504;11.548;2023-12-22T08:04:22;5.88;;;0.77;;
64598;SDS011;51008;51.504;11.548;2023-12-22T08:09:23;5.57;;;0.90;;
64598;SDS011;51008;51.504;11.548;2023-12-22T08:14:25;1.13;;;0.45;;
64598;SDS011;51008;51.504;11.548;2023-12-22T08:19:26;1.95;;;0.40;;
64598;SDS011;51008;51.504;11.548;2023-12-22T08:24:27;1.10;;;0.47;;
64598;SDS011;51008;51.504;11.548;2023-12-22T08:29:28;2.55;;;0.55;;
64598;SDS011;51008;51.504;11.548;2023-12-22T08:34:29;4.72;;;1.13;;
64598;SDS011;51008;51.504;11.548;2023-12-22T08:39:30;2.55;;;0.40;;
64598;SDS011;51008;51.504;11.548;2023-12-22T08:44:31;1.17;;;0.20;;
64598;SDS011;51008;51.504;11.548;2023-12-22T08:49:32;0.10;;;0.10;;
64598;SDS011;51008;51.504;11.548;2023-12-22T08:54:33;0.63;;;0.40;;
64598;SDS011;51008;51.504;11.548;2023-12-22T08:59:34;1.42;;;0.40;;
64598;SDS011;51008;51.504;11.548;2023-12-22T09:04:35;0.98;;;0.47;;
64598;SDS011;51008;51.504;11.548;2023-12-22T09:09:37;1.75;;;0.40;;
64598;SDS011;51008;51.504;11.548;2023-12-22T09:14:41;1.08;;;0.70;;
64598;SDS011;51008;51.504;11.548;2023-12-22T09:19:42;1.85;;;0.90;;
64598;SDS011;51008;51.504;11.548;2023-12-22T09:24:43;3.28;;;1.00;;
64598;SDS011;51008;51.504;11.548;2023-12-22T09:29:44;1.90;;;0.90;;
64598;SDS011;51008;51.504;11.548;2023-12-22T09:34:45;2.78;;;0.65;;
64598;SDS011;51008;51.504;11.548;2023-12-22T09:39:46;5.80;;;1.05;;
64598;SDS011;51008;51.504;11.548;2023-12-22T09:44:48;7.70;;;1.20;;
64598;SDS011;51008;51.504;11.548;2023-12-22T09:49:53;13.68;;;2.10;;
64598;SDS011;51008;51.504;11.548;2023-12-22T09:54:54;9.05;;;1.58;;
64598;SDS011;51008;51.504;11.548;2023-12-22T09:59:57;19.77;;;2.97;;
64598;SDS011;51008;51.504;11.548;2023-12-22T10:05:00;16.02;;;2.65;;
64598;SDS011;51008;51.504;11.548;2023-12-22T10:10:01;16.90;;;2.53;;
64598;SDS011;51008;51.504;11.548;2023-12-22T10:15:04;10.18;;;2.38;;
64598;SDS011;51008;51.504;11.548;2023-12-22T10:20:06;16.05;;;2.75;;
64598;SDS011;51008;51.504;11.548;2023-12-22T10:25:08;19.35;;;2.42;;
64598;SDS011;51008;51.504;11.548;2023-12-22T10:30:09;15.27;;;2.10;;
64598;SDS011;51008;51.504;11.548;2023-12-22T10:35:12;15.57;;;2.42;;
64598;SDS011;51008;51.504;11.548;2023-12-22T10:40:19;13.85;;;2.10;;
64598;SDS011;51008;51.504;11.548;2023-12-22T10:45:21;12.15;;;2.05;;
64598;SDS011;51008;51.504;11.548;2023-12-22T10:50:22;12.48;;;2.70;;
64598;SDS011;51008;51.504;11.548;2023-12-22T10:55:23;15.48;;;1.80;;
64598;SDS011;51008;51.504;11.548;2023-12-22T11:00:25;14.13;;;2.22;;
64598;SDS011;51008;51.504;11.548;2023-12-22T11:05:26;10.27;;;1.73;;
64598;SDS011;51008;51.504;11.548;2023-12-22T11:10:28;12.90;;;1.80;;
64598;SDS011;51008;51.504;11.548;2023-12-22T11:15:31;12.65;;;2.17;;
64598;SDS011;51008;51.504;11.548;2023-12-22T11:20:33;12.23;;;1.77;;
64598;SDS011;51008;51.504;11.548;2023-12-22T11:25:35;14.32;;;2.17;;
64598;SDS011;51008;51.504;11.548;2023-12-22T11:30:38;12.50;;;2.22;;
64598;SDS011;51008;51.504;11.548;2023-12-22T11:35:39;16.30;;;2.22;;
64598;SDS011;51008;51.504;11.548;2023-12-22T11:40:41;10.18;;;1.90;;
64598;SDS011;51008;51.504;11.548;2023-12-22T11:45:43;15.10;;;2.35;;
64598;SDS011;51008;51.504;11.548;2023-12-22T11:50:44;16.00;;;1.98;;
64598;SDS011;51008;51.504;11.548;2023-12-22T11:56:01;16.70;;;2.97;;
64598;SDS011;51008;51.504;11.548;2023-12-22T12:01:13;12.48;;;2.10;;
64598;SDS011;51008;51.504;11.548;2023-12-22T12:06:15;12.85;;;2.00;;
64598;SDS011;51008;51.504;11.548;2023-12-22T12:11:22;17.23;;;1.98;;
64598;SDS011;51008;51.504;11.548;2023-12-22T12:16:24;16.45;;;2.10;;
64598;SDS011;51008;51.504;11.548;2023-12-22T12:21:25;16.35;;;2.10;;
64598;SDS011;51008;51.504;11.548;2023-12-22T12:26:27;14.43;;;2.08;;
64598;SDS011;51008;51.504;11.548;2023-12-22T12:31:37;9.65;;;1.80;;
64598;SDS011;51008;51.504;11.548;2023-12-22T12:36:38;13.02;;;1.77;;
64598;SDS011;51008;51.504;11.548;2023-12-22T12:41:40;9.25;;;2.10;;
64598;SDS011;51008;51.504;11.548;2023-12-22T12:46:42;10.82;;;1.45;;
64598;SDS011;51008;51.504;11.548;2023-12-22T12:51:44;14.50;;;1.70;;
64598;SDS011;51008;51.504;11.548;2023-12-22T13:01:48;8.20;;;1.50;;
64598;SDS011;51008;51.504;11.548;2023-12-22T13:06:50;9.70;;;1.13;;
64598;SDS011;51008;51.504;11.548;2023-12-22T13:11:51;8.75;;;1.20;;
64598;SDS011;51008;51.504;11.548;2023-12-22T13:16:53;11.35;;;1.30;;
64598;SDS011;51008;51.504;11.548;2023-12-22T13:21:55;10.40;;;1.88;;
64598;SDS011;51008;51.504;11.548;2023-12-22T13:27:00;5.97;;;1.08;;
64598;SDS011;51008;51.504;11.548;2023-12-22T13:32:04;5.43;;;1.35;;
64598;SDS011;51008;51.504;11.548;2023-12-22T13:37:06;6.53;;;1.30;;
64598;SDS011;51008;51.504;11.548;2023-12-22T13:42:13;5.60;;;1.38;;
64598;SDS011;51008;51.504;11.548;2023-12-22T13:47:18;5.82;;;1.00;;
64598;SDS011;51008;51.504;11.548;2023-12-22T13:57:30;5.43;;;1.25;;
64598;SDS011;51008;51.504;11.548;2023-12-22T14:02:31;6.07;;;1.30;;
64598;SDS011;51008;51.504;11.548;2023-12-22T14:07:32;4.63;;;1.58;;
64598;SDS011;51008;51.504;11.548;2023-12-22T14:12:33;8.90;;;1.70;;
64598;SDS011;51008;51.504;11.548;2023-12-22T14:17:35;7.57;;;0.93;;
64598;SDS011;51008;51.504;11.548;2023-12-22T14:22:36;6.93;;;1.10;;
64598;SDS011;51008;51.504;11.548;2023-12-22T14:27:37;4.50;;;1.38;;
64598;SDS011;51008;51.504;11.548;2023-12-22T14:32:38;7.03;;;1.20;;
64598;SDS011;51008;51.504;11.548;2023-12-22T14:37:39;6.57;;;1.30;;
64598;SDS011;51008;51.504;11.548;2023-12-22T14:42:40;2.92;;;1.08;;
64598;SDS011;51008;51.504;11.548;2023-12-22T14:47:41;2.60;;;1.00;;
64598;SDS011;51008;51.504;11.548;2023-12-22T14:52:42;4.65;;;1.08;;
64598;SDS011;51008;51.504;11.548;2023-12-22T14:57:43;3.03;;;0.80;;
64598;SDS011;51008;51.504;11.548;2023-12-22T15:02:44;6.53;;;1.30;;
64598;SDS011;51008;51.504;11.548;2023-12-22T15:07:45;4.72;;;0.82;;
64598;SDS011;51008;51.504;11.548;2023-12-22T15:12:46;5.10;;;0.90;;
64598;SDS011;51008;51.504;11.548;2023-12-22T15:17:47;4.55;;;1.00;;
64598;SDS011;51008;51.504;11.548;2023-12-22T15:22:48;4.40;;;0.98;;
64598;SDS011;51008;51.504;11.548;2023-12-22T15:27:48;4.28;;;0.90;;
64598;SDS011;51008;51.504;11.548;2023-12-22T15:32:49;3.90;;;1.00;;
64598;SDS011;51008;51.504;11.548;2023-12-22T15:37:50;4.20;;;0.98;;
64598;SDS011;51008;51.504;11.548;2023-12-22T15:42:51;4.05;;;0.85;;
64598;SDS011;51008;51.504;11.548;2023-12-22T15:47:52;1.08;;;0.90;;
64598;SDS011;51008;51.504;11.548;2023-12-22T15:52:53;4.47;;;0.80;;
64598;SDS011;51008;51.504;11.548;2023-12-22T15:57:54;2.92;;;1.00;;
64598;SDS011;51008;51.504;11.548;2023-12-22T16:02:55;3.22;;;0.82;;
64598;SDS011;51008;51.504;11.548;2023-12-22T16:07:56;2.67;;;1.13;;
64598;SDS011;51008;51.504;11.548;2023-12-22T16:12:57;4.35;;;1.08;;
64598;SDS011;51008;51.504;11.548;2023-12-22T16:17:58;2.92;;;0.93;;
64598;SDS011;51008;51.504;11.548;2023-12-22T16:23:03;2.25;;;0.90;;
64598;SDS011;51008;51.504;11.548;2023-12-22T16:28:04;5.18;;;1.00;;
64598;SDS011;51008;51.504;11.548;2023-12-22T16:33:06;3.20;;;1.08;;
64598;SDS011;51008;51.504;11.548;2023-12-22T16:38:07;4.07;;;0.60;;
64598;SDS011;51008;51.504;11.548;2023-12-22T16:43:08;2.72;;;0.65;;
64598;SDS011;51008;51.504;11.548;2023-12-22T16:48:09;2.92;;;0.88;;
64598;SDS011;51008;51.504;11.548;2023-12-22T16:53:10;2.00;;;0.93;;
64598;SDS011;51008;51.504;11.548;2023-12-22T16:58:10;3.45;;;1.00;;
64598;SDS011;51008;51.504;11.548;2023-12-22T17:03:11;3.88;;;1.17;;
64598;SDS011;51008;51.504;11.548;2023-12-22T17:08:12;4.70;;;1.27;;
64598;SDS011;51008;51.504;11.548;2023-12-22T17:13:13;3.22;;;1.15;;
64598;SDS011;51008;51.504;11.548;2023-12-22T17:18:14;1.02;;;0.80;;
64598;SDS011;51008;51.504;11.548;2023-12-22T17:23:15;2.38;;;0.70;;
64598;SDS011;51008;51.504;11.548;2023-12-22T17:28:16;3.83;;;1.13;;
64598;SDS011;51008;51.504;11.548;2023-12-22T17:33:17;3.60;;;1.08;;
64598;SDS011;51008;51.504;11.548;2023-12-22T17:38:18;1.50;;;0.47;;
64598;SDS011;51008;51.504;11.548;2023-12-22T17:43:19;1.55;;;0.50;;
64598;SDS011;51008;51.504;11.548;2023-12-22T17:48:21;0.70;;;0.20;;
64598;SDS011;51008;51.504;11.548;2023-12-22T17:53:22;0.55;;;0.30;;
64598;SDS011;51008;51.504;11.548;2023-12-22T17:58:23;0.10;;;0.10;;
64598;SDS011;51008;51.504;11.548;2023-12-22T18:03:24;0.52;;;0.38;;
64598;SDS011;51008;51.504;11.548;2023-12-22T18:08:25;1.27;;;0.47;;
64598;SDS011;51008;51.504;11.548;2023-12-22T18:13:26;1.50;;;0.35;;
64598;SDS011;51008;51.504;11.548;2023-12-22T18:18:27;0.47;;;0.40;;
64598;SDS011;51008;51.504;11.548;2023-12-22T18:23:28;0.88;;;0.75;;
64598;SDS011;51008;51.504;11.548;2023-12-22T18:28:29;0.63;;;0.60;;
64598;SDS011;51008;51.504;11.548;2023-12-22T18:33:30;1.20;;;0.30;;
64598;SDS011;51008;51.504;11.548;2023-12-22T18:38:31;1.52;;;0.68;;
64598;SDS011;51008;51.504;11.548;2023-12-22T18:43:33;0.60;;;0.50;;
64598;SDS011;51008;51.504;11.548;2023-12-22T18:48:34;1.20;;;0.60;;
64598;SDS011;51008;51.504;11.548;2023-12-22T18:53:35;2.03;;;0.40;;
64598;SDS011;51008;51.504;11.548;2023-12-22T18:58:36;0.52;;;0.30;;
64598;SDS011;51008;51.504;11.548;2023-12-22T19:03:37;0.30;;;0.30;;
64598;SDS011;51008;51.504;11.548;2023-12-22T19:08:38;0.85;;;0.40;;
64598;SDS011;51008;51.504;11.548;2023-12-22T19:13:39;0.40;;;0.40;;
64598;SDS011;51008;51.504;11.548;2023-12-22T19:18:40;0.50;;;0.50;;
64598;SDS011;51008;51.504;11.548;2023-12-22T19:23:41;0.60;;;0.50;;
64598;SDS011;51008;51.504;11.548;2023-12-22T19:28:42;0.80;;;0.65;;
64598;SDS011;51008;51.504;11.548;2023-12-22T19:33:43;0.88;;;0.60;;
64598;SDS011;51008;51.504;11.548;2023-12-22T19:38:44;0.95;;;0.70;;
64598;SDS011;51008;51.504;11.548;2023-12-22T19:43:45;0.90;;;0.68;;
64598;SDS011;51008;51.504;11.548;2023-12-22T19:48:46;0.28;;;0.20;;
64598;SDS011;51008;51.504;11.548;2023-12-22T19:53:47;0.20;;;0.20;;
64598;SDS011;51008;51.504;11.548;2023-12-22T19:58:48;0.52;;;0.30;;
64598;SDS011;51008;51.504;11.548;2023-12-22T20:03:49;0.95;;;0.20;;
64598;SDS011;51008;51.504;11.548;2023-12-22T20:08:50;0.20;;;0.15;;
64598;SDS011;51008;51.504;11.548;2023-12-22T20:13:51;0.30;;;0.20;;
64598;SDS011;51008;51.504;11.548;2023-12-22T20:18:52;0.35;;;0.20;;
64598;SDS011;51008;51.504;11.548;2023-12-22T20:23:53;0.20;;;0.20;;
64598;SDS011;51008;51.504;11.548;2023-12-22T20:28:55;1.05;;;0.40;;
64598;SDS011;51008;51.504;11.548;2023-12-22T20:33:55;1.98;;;0.20;;
64598;SDS011;51008;51.504;11.548;2023-12-22T20:38:56;0.47;;;0.22;;
64598;SDS011;51008;51.504;11.548;2023-12-22T20:43:57;0.20;;;0.10;;
64598;SDS011;51008;51.504;11.548;2023-12-22T20:48:59;0.20;;;0.10;;
64598;SDS011;51008;51.504;11.548;2023-12-22T20:54:00;0.75;;;0.20;;
64598;SDS011;51008;51.504;11.548;2023-12-22T20:59:01;0.05;;;0.05;;
64598;SDS011;51008;51.504;11.548;2023-12-22T21:04:02;0.22;;;0.20;;
64598;SDS011;51008;51.504;11.548;2023-12-22T21:09:03;0.20;;;0.10;;
64598;SDS011;51008;51.504;11.548;2023-12-22T21:14:04;0.20;;;0.20;;
64598;SDS011;51008;51.504;11.548;2023-12-22T21:19:05;0.57;;;0.10;;
64598;SDS011;51008;51.504;11.548;2023-12-22T21:24:06;0.10;;;0.10;;
64598;SDS011;51008;51.504;11.548;2023-12-22T21:29:07;0.40;;;0.25;;
64598;SDS011;51008;51.504;11.548;2023-12-22T21:34:08;0.80;;;0.30;;
64598;SDS011;51008;51.504;11.548;2023-12-22T21:39:09;1.10;;;0.35;;
64598;SDS011;51008;51.504;11.548;2023-12-22T21:44:30;0.77;;;0.40;;
64598;SDS011;51008;51.504;11.548;2023-12-22T21:49:34;0.30;;;0.30;;
64598;SDS011;51008;51.504;11.548;2023-12-22T21:54:35;0.63;;;0.32;;
64598;SDS011;51008;51.504;11.548;2023-12-22T21:59:56;1.70;;;0.60;;
64598;SDS011;51008;51.504;11.548;2023-12-22T22:05:00;0.30;;;0.30;;
64598;SDS011;51008;51.504;11.548;2023-12-22T22:10:01;3.28;;;0.73;;
64598;SDS011;51008;51.504;11.548;2023-12-22T22:15:02;3.17;;;1.08;;
64598;SDS011;51008;51.504;11.548;2023-12-22T22:20:04;2.25;;;0.55;;
64598;SDS011;51008;51.504;11.548;2023-12-22T22:25:24;1.40;;;0.20;;
64598;SDS011;51008;51.504;11.548;2023-12-22T22:30:44;1.25;;;0.40;;
64598;SDS011;51008;51.504;11.548;2023-12-22T22:35:51;1.80;;;0.70;;
64598;SDS011;51008;51.504;11.548;2023-12-22T22:40:53;1.58;;;0.50;;
64598;SDS011;51008;51.504;11.548;2023-12-22T22:45:54;0.20;;;0.20;;
64598;SDS011;51008;51.504;11.548;2023-12-22T22:50:59;0.43;;;0.20;;
64598;SDS011;51008;51.504;11.548;2023-12-22T23:01:01;1.13;;;0.30;;
64598;SDS011;51008;51.504;11.548;2023-12-22T23:06:03;0.88;;;0.30;;
64598;SDS011;51008;51.504;11.548;2023-12-22T23:11:07;3.13;;;0.50;;
64598;SDS011;51008;51.504;11.548;2023-12-22T23:16:08;3.00;;;0.50;;
64598;SDS011;51008;51.504;11.548;2023-12-22T23:21:09;1.50;;;0.50;;
64598;SDS011;51008;51.504;11.548;2023-12-22T23:26:10;1.58;;;0.30;;
64598;SDS011;51008;51.504;11.548;2023-12-22T23:31:30;3.10;;;0.28;;
64598;SDS011;51008;51.504;11.548;2023-12-22T23:36:37;1.27;;;0.28;;
64598;SDS011;51008;51.504;11.548;2023-12-22T23:41:38;0.77;;;0.30;;
64598;SDS011;51008;51.504;11.548;2023-12-22T23:46:39;0.77;;;0.20;;
64598;SDS011;51008;51.504;11.548;2023-12-22T23:51:40;1.40;;;0.35;;
64598;SDS011;51008;51.504;11.548;2023-12-22T23:56:41;1.52;;;0.25;;
